createdAt,value
2018-04-30T00:00:31.988Z,100.00
2018-04-30T00:03:01.012Z,100.00
2018-04-30T00:05:29.971Z,100.00
2018-04-30T00:07:59.101Z,100.00
2018-04-30T00:10:29.087Z,99.87
2018-04-30T00:12:58.389Z,99.40
2018-04-30T00:15:28.097Z,99.16
2018-04-30T00:17:57.184Z,99.20
2018-04-30T00:20:26.100Z,98.84
2018-04-30T00:22:56.002Z,98.52
2018-04-30T00:25:24.895Z,98.12
2018-04-30T00:27:53.891Z,98.08
2018-04-30T00:30:23.737Z,98.29
2018-04-30T00:32:53.249Z,98.53
2018-04-30T00:35:22.189Z,98.27
2018-04-30T00:37:51.124Z,97.95
2018-04-30T00:40:20.093Z,97.69
2018-04-30T00:42:49.087Z,97.82
2018-04-30T00:45:18.176Z,97.69
2018-04-30T00:47:47.378Z,97.49
2018-04-30T00:50:16.278Z,97.02
2018-04-30T00:52:45.980Z,96.57
2018-04-30T00:55:15.069Z,96.40
2018-04-30T00:57:44.077Z,95.84
2018-04-30T01:00:13.152Z,95.35
2018-04-30T01:02:42.066Z,95.09
2018-04-30T01:05:11.153Z,94.82
2018-04-30T01:07:40.253Z,94.21
2018-04-30T01:10:09.248Z,93.71
2018-04-30T01:12:38.093Z,93.27
2018-04-30T01:15:07.273Z,92.96
2018-04-30T01:17:36.212Z,92.74
2018-04-30T01:20:05.148Z,91.95
2018-04-30T01:22:34.776Z,91.66
2018-04-30T01:25:03.830Z,91.50
2018-04-30T01:27:32.702Z,91.32
2018-04-30T01:30:01.722Z,91.08
2018-04-30T01:32:30.716Z,90.46
2018-04-30T01:34:59.716Z,90.38
2018-04-30T01:37:28.701Z,90.18
2018-04-30T01:39:57.582Z,89.95
2018-04-30T01:42:26.570Z,89.80
2018-04-30T01:47:30.153Z,89.69
2018-04-30T01:49:59.195Z,89.94
2018-04-30T01:52:29.941Z,90.01
2018-04-30T01:54:58.877Z,90.40
2018-04-30T01:57:27.826Z,90.65
2018-04-30T01:59:57.776Z,90.62
2018-04-30T02:02:26.727Z,91.00
2018-04-30T02:04:55.561Z,91.53
2018-04-30T02:07:24.520Z,91.92
2018-04-30T02:09:53.799Z,92.23
2018-04-30T02:12:22.810Z,92.52
2018-04-30T02:14:54.389Z,92.71
2018-04-30T02:17:23.356Z,93.21
2018-04-30T02:19:57.173Z,93.83
2018-04-30T02:22:25.930Z,94.16
2018-04-30T02:24:54.831Z,94.37
2018-04-30T02:27:23.719Z,94.86
2018-04-30T02:29:52.700Z,95.41
2018-04-30T02:32:23.035Z,95.19
2018-04-30T02:34:52.961Z,95.82
2018-04-30T02:37:21.825Z,95.48
2018-04-30T02:39:50.729Z,95.89
2018-04-30T02:42:21.409Z,95.81
2018-04-30T02:44:50.358Z,95.81
2018-04-30T02:47:19.249Z,96.35
2018-04-30T02:49:48.145Z,96.87
2018-04-30T02:52:17.234Z,96.50
2018-04-30T02:54:46.133Z,96.99
2018-04-30T02:57:16.761Z,96.94
2018-04-30T02:59:45.791Z,97.32
2018-04-30T03:02:14.852Z,97.43
2018-04-30T03:04:44.052Z,97.32
2018-04-30T03:07:12.878Z,97.31
2018-04-30T03:09:41.738Z,97.70
2018-04-30T03:14:47.611Z,97.43
2018-04-30T03:17:16.499Z,97.51
2018-04-30T03:19:45.595Z,97.67
2018-04-30T03:24:49.005Z,97.21
2018-04-30T03:27:18.008Z,95.68
2018-04-30T03:29:46.891Z,93.34
2018-04-30T03:32:16.744Z,90.68
2018-04-30T03:34:46.653Z,87.42
2018-04-30T03:37:15.717Z,84.90
2018-04-30T03:39:45.633Z,83.96
2018-04-30T03:42:14.528Z,83.55
2018-04-30T03:44:44.011Z,82.03
2018-04-30T03:47:13.028Z,80.89
2018-04-30T03:49:41.998Z,80.56
2018-04-30T03:52:11.018Z,79.62
2018-04-30T03:57:14.185Z,78.37
2018-04-30T03:59:43.054Z,75.59
2018-04-30T04:02:24.093Z,74.34
2018-04-30T04:05:16.574Z,72.81
2018-04-30T04:07:46.298Z,75.94
2018-04-30T04:10:15.235Z,74.19
2018-04-30T04:12:44.350Z,78.27
2018-04-30T04:15:13.433Z,76.01
2018-04-30T04:17:42.426Z,73.73
2018-04-30T04:20:11.522Z,74.51
2018-04-30T04:22:42.408Z,73.67
2018-04-30T04:25:11.366Z,71.31
2018-04-30T04:27:40.351Z,71.35
2018-04-30T04:30:11.836Z,68.58
2018-04-30T04:32:41.324Z,68.43
2018-04-30T04:35:10.202Z,71.66
2018-04-30T04:37:39.298Z,75.95
2018-04-30T04:40:08.298Z,77.25
2018-04-30T04:42:37.390Z,78.92
2018-04-30T04:45:12.848Z,79.70
2018-04-30T04:47:41.801Z,80.70
2018-04-30T04:50:11.603Z,82.28
2018-04-30T04:52:42.458Z,84.01
2018-04-30T04:55:11.420Z,84.57
2018-04-30T04:57:40.291Z,85.23
2018-04-30T05:00:09.246Z,85.81
2018-04-30T05:02:38.290Z,87.39
2018-04-30T05:05:07.286Z,88.20
2018-04-30T05:07:37.101Z,87.89
2018-04-30T05:10:05.891Z,87.57
2018-04-30T05:12:38.116Z,89.42
2018-04-30T05:15:07.290Z,88.89
2018-04-30T05:17:37.201Z,87.63
2018-04-30T05:29:11.964Z,84.22
2018-04-30T05:31:40.843Z,84.60
2018-04-30T05:34:09.908Z,81.12
2018-04-30T05:36:38.842Z,79.23
2018-04-30T05:39:07.943Z,78.10
2018-04-30T05:41:36.874Z,78.55
2018-04-30T05:44:05.871Z,78.58
2018-04-30T05:46:34.963Z,77.60
2018-04-30T05:49:03.857Z,77.30
2018-04-30T05:51:32.862Z,76.58
2018-04-30T05:54:01.741Z,74.18
2018-04-30T05:56:30.604Z,73.52
2018-04-30T05:59:00.475Z,73.95
2018-04-30T06:01:29.437Z,73.23
2018-04-30T06:03:58.432Z,73.60
2018-04-30T06:06:27.418Z,72.36
2018-04-30T06:08:56.421Z,73.93
2018-04-30T06:11:25.425Z,72.36
2018-04-30T06:13:54.314Z,70.59
2018-04-30T06:16:23.205Z,63.91
2018-04-30T06:18:52.093Z,58.28
2018-04-30T06:21:20.981Z,60.34
2018-04-30T06:23:49.981Z,63.07
2018-04-30T06:26:18.971Z,63.33
2018-04-30T06:28:48.814Z,64.62
2018-04-30T06:31:17.566Z,64.42
2018-04-30T06:33:46.442Z,61.81
2018-04-30T06:36:15.407Z,60.18
2018-04-30T06:38:44.351Z,58.55
2018-04-30T06:41:13.221Z,56.10
2018-04-30T06:43:42.950Z,56.59
2018-04-30T06:46:12.739Z,57.08
2018-04-30T06:48:41.828Z,58.08
2018-04-30T06:51:11.658Z,54.85
2018-04-30T06:53:40.545Z,55.01
2018-04-30T06:56:09.396Z,57.58
2018-04-30T06:58:39.554Z,61.22
2018-04-30T07:01:08.650Z,60.24
2018-04-30T07:03:37.501Z,54.54
2018-04-30T07:06:07.229Z,54.40
2018-04-30T07:08:36.040Z,53.57
2018-04-30T07:11:04.835Z,54.38
2018-04-30T07:13:35.364Z,52.16
2018-04-30T07:16:04.349Z,51.28
2018-04-30T07:18:33.119Z,49.59
2018-04-30T07:21:01.937Z,53.30
2018-04-30T07:23:30.785Z,53.77
2018-04-30T07:25:59.722Z,54.43
2018-04-30T07:28:28.717Z,53.24
2018-04-30T07:30:57.604Z,50.89
2018-04-30T07:33:26.547Z,50.05
2018-04-30T07:35:56.412Z,49.14
2018-04-30T07:38:25.407Z,49.79
2018-04-30T07:40:54.196Z,53.76
2018-04-30T07:43:24.623Z,55.82
2018-04-30T07:45:53.617Z,57.87
2018-04-30T07:48:22.727Z,61.03
2018-04-30T07:50:51.709Z,61.91
2018-04-30T07:53:20.632Z,64.91
2018-04-30T07:55:49.530Z,64.88
2018-04-30T07:58:18.901Z,65.29
2018-04-30T08:00:47.785Z,68.54
2018-04-30T08:03:16.643Z,68.39
2018-04-30T08:08:20.101Z,67.42
2018-04-30T08:10:48.952Z,68.90
2018-04-30T08:13:18.900Z,68.11
2018-04-30T08:15:47.687Z,67.97
2018-04-30T08:18:16.585Z,67.49
2018-04-30T08:20:45.619Z,69.11
2018-04-30T08:23:14.476Z,68.36
2018-04-30T08:25:44.207Z,69.41
2018-04-30T08:28:13.145Z,68.44
2018-04-30T08:30:42.038Z,69.23
2018-04-30T08:33:10.955Z,68.84
2018-04-30T08:35:39.850Z,70.96
2018-04-30T08:38:08.640Z,71.45
2018-04-30T08:40:37.735Z,71.13
2018-04-30T08:43:09.285Z,70.70
2018-04-30T08:45:38.310Z,70.26
2018-04-30T08:48:07.172Z,70.05
2018-04-30T08:50:38.624Z,70.33
2018-04-30T08:53:07.549Z,71.61
2018-04-30T08:55:36.434Z,70.92
2018-04-30T08:58:05.543Z,70.98
2018-04-30T09:00:34.381Z,71.04
2018-04-30T09:03:03.234Z,69.54
2018-04-30T09:05:32.224Z,69.13
2018-04-30T09:08:01.109Z,67.54
2018-04-30T09:10:29.992Z,71.43
2018-04-30T09:13:02.674Z,72.02
2018-04-30T09:15:31.668Z,70.40
2018-04-30T09:18:00.458Z,69.06
2018-04-30T09:20:30.188Z,68.55
2018-04-30T09:22:58.985Z,67.73
2018-04-30T09:25:27.744Z,65.57
2018-04-30T09:33:04.559Z,69.35
2018-04-30T09:35:33.684Z,67.58
2018-04-30T09:38:02.455Z,68.59
2018-04-30T09:43:06.811Z,65.08
2018-04-30T09:45:35.777Z,62.69
2018-04-30T09:48:04.667Z,63.27
2018-04-30T09:50:33.660Z,64.50
2018-04-30T09:53:02.942Z,66.35
2018-04-30T09:55:31.965Z,64.49
2018-04-30T09:58:00.964Z,65.60
2018-04-30T10:00:29.741Z,64.17
2018-04-30T10:02:58.629Z,65.11
2018-04-30T10:05:29.427Z,62.54
2018-04-30T10:07:58.465Z,62.20
2018-04-30T10:10:27.363Z,60.81
2018-04-30T10:12:56.244Z,61.19
2018-04-30T10:15:25.142Z,61.98
2018-04-30T10:17:54.244Z,63.43
2018-04-30T10:20:24.051Z,62.24
2018-04-30T10:22:52.988Z,62.81
2018-04-30T10:25:21.810Z,63.75
2018-04-30T10:27:50.824Z,63.42
2018-04-30T10:30:19.616Z,63.16
2018-04-30T10:32:48.618Z,62.80
2018-04-30T10:35:18.556Z,60.90
2018-04-30T10:37:48.586Z,62.47
2018-04-30T10:40:17.368Z,65.02
2018-04-30T10:42:46.359Z,63.77
2018-04-30T10:45:15.222Z,63.25
2018-04-30T10:47:44.931Z,63.57
2018-04-30T10:50:13.829Z,63.58
2018-04-30T10:52:42.819Z,62.58
2018-04-30T10:55:12.567Z,64.34
2018-04-30T10:57:41.555Z,63.34
2018-04-30T11:00:10.520Z,63.17
2018-04-30T11:02:39.380Z,63.64
2018-04-30T11:05:08.201Z,63.86
2018-04-30T11:07:37.092Z,63.07
2018-04-30T11:10:05.986Z,63.57
2018-04-30T11:12:34.868Z,61.62
2018-04-30T11:15:04.481Z,62.34
2018-04-30T11:17:33.886Z,61.07
2018-04-30T11:20:05.472Z,61.39
2018-04-30T11:22:34.287Z,60.39
2018-04-30T11:25:03.094Z,62.67
2018-04-30T11:27:34.582Z,63.45
2018-04-30T11:30:03.561Z,62.79
2018-04-30T11:32:32.496Z,64.10
2018-04-30T11:35:01.450Z,63.55
2018-04-30T11:37:30.340Z,62.17
2018-04-30T11:39:59.518Z,62.25
2018-04-30T11:42:28.406Z,60.05
2018-04-30T11:44:57.326Z,58.97
2018-04-30T11:47:26.165Z,60.05
2018-04-30T11:49:55.931Z,61.44
2018-04-30T11:52:24.824Z,60.79
2018-04-30T11:54:53.621Z,62.13
2018-04-30T11:59:57.419Z,65.30
2018-04-30T12:02:26.325Z,66.68
2018-04-30T12:04:57.887Z,66.46
2018-04-30T12:07:26.874Z,66.57
2018-04-30T12:09:55.769Z,67.78
2018-04-30T12:12:24.557Z,68.50
2018-04-30T12:14:53.480Z,68.58
2018-04-30T12:17:22.339Z,69.73
2018-04-30T12:19:51.944Z,70.04
2018-04-30T12:22:20.840Z,70.02
2018-04-30T12:24:49.725Z,69.01
2018-04-30T12:27:21.285Z,69.79
2018-04-30T12:29:50.427Z,71.17
2018-04-30T12:32:19.478Z,72.57
2018-04-30T12:34:48.643Z,72.50
2018-04-30T12:37:17.823Z,71.96
2018-04-30T12:39:47.187Z,72.32
2018-04-30T12:42:16.928Z,72.92
2018-04-30T12:44:45.886Z,73.87
2018-04-30T12:47:14.813Z,73.71
2018-04-30T12:49:44.460Z,74.09
2018-04-30T12:52:13.375Z,73.65
2018-04-30T12:54:42.267Z,74.23
2018-04-30T12:59:47.832Z,74.63
2018-04-30T13:02:16.777Z,75.69
2018-04-30T13:04:45.822Z,74.68
2018-04-30T13:09:49.759Z,75.14
2018-04-30T13:12:18.833Z,75.49
2018-04-30T13:14:48.255Z,75.16
2018-04-30T13:17:18.011Z,75.30
2018-04-30T13:19:46.958Z,75.63
2018-04-30T13:22:15.964Z,74.19
2018-04-30T13:24:45.861Z,76.20
2018-04-30T13:27:15.379Z,75.18
2018-04-30T13:29:44.158Z,74.78
2018-04-30T13:32:15.723Z,74.63
2018-04-30T13:34:44.603Z,74.07
2018-04-30T13:37:13.358Z,73.04
2018-04-30T13:39:43.114Z,73.08
2018-04-30T13:42:12.863Z,74.00
2018-04-30T13:44:41.812Z,72.57
2018-04-30T13:47:10.703Z,73.08
2018-04-30T13:49:39.628Z,72.76
2018-04-30T13:52:08.600Z,73.14
2018-04-30T13:57:11.291Z,73.76
2018-04-30T13:59:40.119Z,72.52
2018-04-30T14:02:09.069Z,73.91
2018-04-30T14:04:37.963Z,74.69
2018-04-30T14:07:07.770Z,74.04
2018-04-30T14:09:37.926Z,74.40
2018-04-30T14:12:06.689Z,73.88
2018-04-30T14:14:35.576Z,76.33
2018-04-30T14:17:06.207Z,76.86
2018-04-30T14:19:35.217Z,77.45
2018-04-30T14:22:04.202Z,77.30
2018-04-30T14:24:33.095Z,77.58
2018-04-30T14:27:01.982Z,77.65
2018-04-30T14:29:30.982Z,77.50
2018-04-30T14:32:06.106Z,78.83
2018-04-30T14:34:34.892Z,78.96
2018-04-30T14:37:03.796Z,78.87
2018-04-30T14:39:33.529Z,77.89
2018-04-30T17:38:52.582Z,93.89
2018-04-30T17:41:22.305Z,93.98
2018-04-30T17:43:51.229Z,93.84
2018-04-30T17:46:21.847Z,94.04
2018-04-30T17:48:51.667Z,93.63
2018-04-30T17:51:20.502Z,94.14
2018-04-30T17:53:51.139Z,94.60
2018-04-30T17:56:19.993Z,94.90
2018-04-30T17:58:48.899Z,95.53
2018-04-30T18:01:18.651Z,95.57
2018-04-30T18:03:47.506Z,95.63
2018-04-30T18:06:17.103Z,95.88
2018-04-30T18:08:45.992Z,96.28
2018-04-30T18:11:14.823Z,96.50
2018-04-30T18:13:44.791Z,96.52
2018-04-30T18:16:16.260Z,96.50
2018-04-30T18:18:45.645Z,96.29
2018-04-30T18:21:14.533Z,96.84
2018-04-30T18:23:43.527Z,96.75
2018-04-30T18:26:12.426Z,97.50
2018-04-30T18:28:42.129Z,97.75
2018-04-30T18:31:11.235Z,98.02
2018-04-30T18:33:42.719Z,98.29
2018-04-30T18:38:45.490Z,98.06
2018-04-30T18:41:14.324Z,98.14
2018-04-30T18:43:43.473Z,98.08
2018-04-30T18:46:13.078Z,97.83
2018-04-30T18:48:42.188Z,97.81
2018-04-30T18:53:45.000Z,98.29
2018-04-30T18:56:14.002Z,98.49
2018-04-30T18:58:44.721Z,98.36
2018-04-30T19:01:13.857Z,98.21
2018-04-30T19:03:42.795Z,98.46
2018-04-30T19:06:11.627Z,98.30
2018-04-30T19:08:40.463Z,98.52
2018-04-30T19:11:09.395Z,98.75
2018-04-30T19:13:39.982Z,99.14
2018-04-30T19:16:09.941Z,99.66
2018-04-30T19:18:39.608Z,99.43
2018-04-30T19:21:14.250Z,99.75
2018-04-30T19:23:43.095Z,99.80
2018-04-30T19:26:12.027Z,99.32
2018-04-30T19:28:41.021Z,99.12
2018-04-30T19:31:09.939Z,99.42
2018-04-30T19:33:39.832Z,99.73
2018-04-30T19:36:14.766Z,99.57
2018-04-30T19:38:43.732Z,99.92
2018-04-30T19:41:13.563Z,100.00
2018-04-30T19:43:42.679Z,100.00
2018-04-30T19:46:11.563Z,100.00
2018-04-30T19:48:40.395Z,99.60
2018-04-30T19:51:09.389Z,99.15
2018-04-30T19:53:38.288Z,98.59
2018-04-30T19:56:07.102Z,97.92
2018-04-30T19:58:38.612Z,97.47
2018-04-30T20:01:07.523Z,97.53
2018-04-30T20:03:37.640Z,97.18
2018-04-30T20:06:08.268Z,96.75
2018-04-30T20:08:37.167Z,96.75
2018-04-30T20:11:06.155Z,96.11
2018-04-30T20:13:36.470Z,95.75
2018-04-30T20:16:05.367Z,94.75
2018-04-30T20:18:34.106Z,93.98
2018-04-30T20:21:03.146Z,92.32
2018-04-30T20:23:32.196Z,90.96
2018-04-30T20:26:01.084Z,89.48
2018-04-30T20:28:30.048Z,88.60
2018-04-30T20:30:59.031Z,87.90
2018-04-30T20:33:33.072Z,87.62
2018-04-30T20:36:05.417Z,87.39
2018-04-30T20:38:35.232Z,87.08
2018-04-30T20:41:04.330Z,87.15
2018-04-30T20:43:33.927Z,87.15
2018-04-30T20:46:03.642Z,86.70
2018-04-30T20:48:32.536Z,85.70
2018-04-30T20:51:02.600Z,85.11
2018-04-30T20:53:31.491Z,84.61
2018-04-30T20:56:00.271Z,84.12
2018-04-30T20:58:28.974Z,83.64
2018-04-30T21:00:57.935Z,83.68
2018-04-30T21:03:26.831Z,83.60
2018-04-30T21:05:55.698Z,83.51
2018-04-30T21:08:24.593Z,83.39
2018-04-30T21:10:53.565Z,83.94
2018-04-30T21:13:22.579Z,83.50
2018-04-30T21:15:53.084Z,83.37
2018-04-30T21:18:21.897Z,83.35
2018-04-30T21:20:50.866Z,82.95
2018-04-30T21:23:22.352Z,83.23
2018-04-30T21:25:51.370Z,83.97
2018-04-30T21:28:20.334Z,83.52
2018-04-30T21:30:49.327Z,83.35
2018-04-30T21:33:18.217Z,83.26
2018-04-30T21:35:47.109Z,83.35
2018-04-30T21:38:17.859Z,83.46
2018-04-30T21:40:46.811Z,83.74
2018-04-30T21:43:15.737Z,84.14
2018-04-30T21:45:44.622Z,84.26
2018-04-30T21:48:13.611Z,84.51
2018-04-30T21:50:42.409Z,84.63
2018-04-30T21:53:11.434Z,84.73
2018-04-30T21:55:40.291Z,84.94
2018-04-30T21:58:09.186Z,84.81
2018-04-30T22:00:38.117Z,84.96
2018-04-30T22:03:07.012Z,85.45
2018-04-30T22:05:36.162Z,86.09
2018-04-30T22:08:09.266Z,86.38
2018-04-30T22:10:38.246Z,86.33
2018-04-30T22:13:07.141Z,86.50
2018-04-30T22:15:37.005Z,86.71
2018-04-30T22:18:05.831Z,86.63
2018-04-30T22:20:35.564Z,87.04
2018-04-30T22:23:06.597Z,87.69
2018-04-30T22:25:36.515Z,88.33
2018-04-30T22:28:05.505Z,88.78
2018-04-30T22:30:35.426Z,88.91
2018-04-30T22:33:04.411Z,88.60
2018-04-30T22:35:33.305Z,88.43
2018-04-30T22:38:03.221Z,89.11
2018-04-30T22:40:32.115Z,90.76
2018-04-30T22:43:01.114Z,91.20
2018-04-30T22:45:30.308Z,90.83
2018-04-30T22:48:00.119Z,90.56
2018-04-30T22:50:29.733Z,91.35
2018-04-30T22:58:06.964Z,91.02
2018-04-30T23:00:35.882Z,90.76
2018-04-30T23:03:04.835Z,91.60
2018-04-30T23:05:33.718Z,92.79
2018-04-30T23:08:02.831Z,92.76
2018-04-30T23:10:33.053Z,93.06
2018-04-30T23:13:01.870Z,94.33
2018-04-30T23:15:31.347Z,94.52
2018-04-30T23:18:00.347Z,94.27
2018-04-30T23:20:29.209Z,93.34
2018-04-30T23:22:58.110Z,92.87
2018-04-30T23:25:28.861Z,92.04
2018-04-30T23:27:57.849Z,91.64
2018-04-30T23:30:26.846Z,91.52
2018-04-30T23:32:58.712Z,91.32
2018-04-30T23:35:28.468Z,91.35
2018-04-30T23:37:57.346Z,91.40
2018-04-30T23:40:26.392Z,91.82
2018-04-30T23:42:55.298Z,92.16
2018-04-30T23:45:24.275Z,92.54
2018-04-30T23:47:53.391Z,92.74
2018-04-30T23:50:23.305Z,92.90
2018-04-30T23:52:52.096Z,93.30
2018-04-30T23:57:55.516Z,93.40
